sensor_id;sensor_type;location;lat;lon;timestamp;pressure;altitude;pressure_sealevel;temperature;humidity
78094;BME280;67327;37.152;-76.406;2023-02-28T00:00:50;100342.48;;;41.82;8.49
78094;BME280;67327;37.152;-76.406;2023-02-28T00:03:15;100334.89;;;41.86;8.45
78094;BME280;67327;37.152;-76.406;2023-02-28T00:05:40;100333.17;;;42.14;8.50
78094;BME280;67327;37.152;-76.406;2023-02-28T00:08:05;100331.11;;;41.94;8.51
78094;BME280;67327;37.152;-76.406;2023-02-28T00:10:31;100338.09;;;41.96;8.51
78094;BME280;67327;37.152;-76.406;2023-02-28T00:12:59;100345.76;;;42.23;8.50
78094;BME280;67327;37.152;-76.406;2023-02-28T00:15:21;100364.62;;;41.97;8.50
78094;BME280;67327;37.152;-76.406;2023-02-28T00:17:46;100353.56;;;41.93;8.50
78094;BME280;67327;37.152;-76.406;2023-02-28T00:20:12;100339.07;;;41.67;8.52
78094;BME280;67327;37.152;-76.406;2023-02-28T00:22:37;100313.34;;;41.89;8.53
78094;BME280;67327;37.152;-76.406;2023-02-28T00:25:01;100298.38;;;42.13;8.55
78094;BME280;67327;37.152;-76.406;2023-02-28T00:27:26;100276.43;;;41.87;8.55
78094;BME280;67327;37.152;-76.406;2023-02-28T00:29:51;100264.34;;;41.85;8.58
78094;BME280;67327;37.152;-76.406;2023-02-28T00:32:17;100233.29;;;41.84;8.58
78094;BME280;67327;37.152;-76.406;2023-02-28T00:34:42;100199.40;;;41.84;8.61
78094;BME280;67327;37.152;-76.406;2023-02-28T00:37:08;100186.76;;;41.83;8.60
78094;BME280;67327;37.152;-76.406;2023-02-28T00:39:34;100201.60;;;41.80;8.63
78094;BME280;67327;37.152;-76.406;2023-02-28T00:41:57;100199.77;;;41.77;8.65
78094;BME280;67327;37.152;-76.406;2023-02-28T00:44:22;100191.55;;;41.74;8.65
78094;BME280;67327;37.152;-76.406;2023-02-28T00:46:47;100183.87;;;41.72;8.69
78094;BME280;67327;37.152;-76.406;2023-02-28T00:49:13;100156.13;;;41.48;8.70
78094;BME280;67327;37.152;-76.406;2023-02-28T00:51:38;100140.03;;;41.71;8.72
78094;BME280;67327;37.152;-76.406;2023-02-28T00:54:03;100161.28;;;41.73;8.74
78094;BME280;67327;37.152;-76.406;2023-02-28T00:56:28;100144.33;;;41.73;8.75
78094;BME280;67327;37.152;-76.406;2023-02-28T00:58:53;100124.69;;;41.75;8.75
78094;BME280;67327;37.152;-76.406;2023-02-28T01:01:18;100130.48;;;42.01;8.75
78094;BME280;67327;37.152;-76.406;2023-02-28T01:03:43;100107.30;;;42.00;8.77
78094;BME280;67327;37.152;-76.406;2023-02-28T01:06:08;100084.17;;;42.00;8.78
78094;BME280;67327;37.152;-76.406;2023-02-28T01:08:33;100070.92;;;41.98;8.80
78094;BME280;67327;37.152;-76.406;2023-02-28T01:11:07;100064.56;;;41.98;8.82
78094;BME280;67327;37.152;-76.406;2023-02-28T01:13:24;100062.78;;;41.74;8.81
78094;BME280;67327;37.152;-76.406;2023-02-28T01:15:51;100066.44;;;41.98;8.83
78094;BME280;67327;37.152;-76.406;2023-02-28T01:18:14;100071.15;;;41.75;8.84
78094;BME280;67327;37.152;-76.406;2023-02-28T01:20:39;100040.67;;;41.98;8.84
78094;BME280;67327;37.152;-76.406;2023-02-28T01:23:04;100035.40;;;41.73;8.86
78094;BME280;67327;37.152;-76.406;2023-02-28T01:25:30;100023.90;;;41.96;8.88
78094;BME280;67327;37.152;-76.406;2023-02-28T01:27:55;99983.27;;;41.97;8.88
78094;BME280;67327;37.152;-76.406;2023-02-28T01:30:20;99993.57;;;41.76;8.88
78094;BME280;67327;37.152;-76.406;2023-02-28T01:32:45;99984.98;;;41.77;8.88
78094;BME280;67327;37.152;-76.406;2023-02-28T01:35:10;99975.63;;;42.00;8.89
78094;BME280;67327;37.152;-76.406;2023-02-28T01:37:35;99964.90;;;41.75;8.89
78094;BME280;67327;37.152;-76.406;2023-02-28T01:40:00;99964.36;;;41.77;8.89
78094;BME280;67327;37.152;-76.406;2023-02-28T01:42:25;99954.77;;;41.80;8.86
78094;BME280;67327;37.152;-76.406;2023-02-28T01:45:03;99954.69;;;42.05;8.88
78094;BME280;67327;37.152;-76.406;2023-02-28T01:47:16;99934.34;;;42.05;8.88
78094;BME280;67327;37.152;-76.406;2023-02-28T01:49:41;99922.53;;;41.79;8.89
78094;BME280;67327;37.152;-76.406;2023-02-28T01:52:06;99916.42;;;42.05;8.88
78094;BME280;67327;37.152;-76.406;2023-02-28T01:54:33;99902.53;;;42.06;8.87
78094;BME280;67327;37.152;-76.406;2023-02-28T01:56:59;99888.85;;;41.82;8.89
78094;BME280;67327;37.152;-76.406;2023-02-28T01:59:24;99877.56;;;42.06;8.88
78094;BME280;67327;37.152;-76.406;2023-02-28T02:01:46;99852.35;;;41.83;8.88
78094;BME280;67327;37.152;-76.406;2023-02-28T02:04:11;99841.87;;;41.83;8.88
78094;BME280;67327;37.152;-76.406;2023-02-28T02:06:40;99843.55;;;41.80;8.90
78094;BME280;67327;37.152;-76.406;2023-02-28T02:09:02;99840.00;;;41.79;8.89
78094;BME280;67327;37.152;-76.406;2023-02-28T02:11:27;99826.15;;;42.01;8.91
78094;BME280;67327;37.152;-76.406;2023-02-28T02:14:06;99827.16;;;41.73;8.94
78094;BME280;67327;37.152;-76.406;2023-02-28T02:16:26;99823.70;;;41.71;8.94
78094;BME280;67327;37.152;-76.406;2023-02-28T02:18:46;99833.30;;;41.73;8.94
78094;BME280;67327;37.152;-76.406;2023-02-28T02:21:24;99817.53;;;41.75;8.94
78094;BME280;67327;37.152;-76.406;2023-02-28T02:26:06;99822.32;;;41.58;8.91
78094;BME280;67327;37.152;-76.406;2023-02-28T02:30:59;99740.77;;;41.82;8.91
78094;BME280;67327;37.152;-76.406;2023-02-28T02:33:29;99744.36;;;41.82;8.92
78094;BME280;67327;37.152;-76.406;2023-02-28T02:35:41;99752.72;;;42.08;8.92
78094;BME280;67327;37.152;-76.406;2023-02-28T02:38:08;99717.21;;;41.85;8.92
78094;BME280;67327;37.152;-76.406;2023-02-28T02:40:33;99708.98;;;41.84;8.93
78094;BME280;67327;37.152;-76.406;2023-02-28T02:42:59;99700.01;;;42.05;8.94
78094;BME280;67327;37.152;-76.406;2023-02-28T02:45:23;99703.47;;;42.03;8.96
78094;BME280;67327;37.152;-76.406;2023-02-28T02:47:44;99692.90;;;42.02;8.96
78094;BME280;67327;37.152;-76.406;2023-02-28T02:50:13;99683.03;;;41.74;8.98
78094;BME280;67327;37.152;-76.406;2023-02-28T02:52:38;99676.23;;;41.72;9.00
78094;BME280;67327;37.152;-76.406;2023-02-28T02:55:00;99680.16;;;41.72;9.01
78094;BME280;67327;37.152;-76.406;2023-02-28T02:57:27;99679.53;;;41.70;9.01
78094;BME280;67327;37.152;-76.406;2023-02-28T02:59:50;99698.93;;;41.71;9.03
78094;BME280;67327;37.152;-76.406;2023-02-28T03:02:16;99698.75;;;41.95;9.03
78094;BME280;67327;37.152;-76.406;2023-02-28T03:04:45;99705.88;;;41.94;9.04
78094;BME280;67327;37.152;-76.406;2023-02-28T03:07:05;99704.62;;;41.93;9.03
78094;BME280;67327;37.152;-76.406;2023-02-28T03:09:34;99726.03;;;41.94;9.06
78094;BME280;67327;37.152;-76.406;2023-02-28T03:11:56;99733.02;;;41.74;9.05
78094;BME280;67327;37.152;-76.406;2023-02-28T03:14:28;99756.03;;;41.77;9.06
78094;BME280;67327;37.152;-76.406;2023-02-28T03:16:58;99791.84;;;42.05;9.08
78094;BME280;67327;37.152;-76.406;2023-02-28T03:19:25;99788.99;;;42.08;9.09
78094;BME280;67327;37.152;-76.406;2023-02-28T03:21:40;99801.17;;;41.88;9.03
78094;BME280;67327;37.152;-76.406;2023-02-28T03:24:04;99754.30;;;41.90;9.05
78094;BME280;67327;37.152;-76.406;2023-02-28T03:26:27;99790.48;;;41.90;9.05
78094;BME280;67327;37.152;-76.406;2023-02-28T03:28:57;99786.23;;;42.13;9.06
78094;BME280;67327;37.152;-76.406;2023-02-28T03:31:20;99756.25;;;42.14;9.06
78094;BME280;67327;37.152;-76.406;2023-02-28T03:33:46;99753.43;;;41.89;9.08
78094;BME280;67327;37.152;-76.406;2023-02-28T03:36:10;99781.27;;;41.88;9.10
78094;BME280;67327;37.152;-76.406;2023-02-28T03:38:35;99780.10;;;41.85;9.14
78094;BME280;67327;37.152;-76.406;2023-02-28T03:41:02;99774.84;;;41.75;9.18
78094;BME280;67327;37.152;-76.406;2023-02-28T03:43:25;99761.33;;;41.67;9.20
78094;BME280;67327;37.152;-76.406;2023-02-28T03:45:48;99737.38;;;41.80;9.26
78094;BME280;67327;37.152;-76.406;2023-02-28T03:48:15;99754.55;;;41.74;9.30
78094;BME280;67327;37.152;-76.406;2023-02-28T03:50:39;99757.58;;;41.45;9.34
78094;BME280;67327;37.152;-76.406;2023-02-28T03:53:07;99777.25;;;41.66;9.36
78094;BME280;67327;37.152;-76.406;2023-02-28T03:55:30;99757.23;;;41.64;9.43
78094;BME280;67327;37.152;-76.406;2023-02-28T03:57:58;99748.80;;;41.63;9.49
78094;BME280;67327;37.152;-76.406;2023-02-28T04:00:19;99757.11;;;41.62;9.47
78094;BME280;67327;37.152;-76.406;2023-02-28T04:02:43;99750.31;;;41.61;9.52
78094;BME280;67327;37.152;-76.406;2023-02-28T04:05:08;99754.34;;;41.58;9.57
78094;BME280;67327;37.152;-76.406;2023-02-28T04:07:33;99756.17;;;41.57;9.58
78094;BME280;67327;37.152;-76.406;2023-02-28T04:09:58;99752.35;;;41.56;9.60
78094;BME280;67327;37.152;-76.406;2023-02-28T04:12:23;99752.16;;;41.55;9.59
78094;BME280;67327;37.152;-76.406;2023-02-28T04:14:48;99747.68;;;41.54;9.58
78094;BME280;67327;37.152;-76.406;2023-02-28T04:17:13;99744.22;;;41.54;9.59
78094;BME280;67327;37.152;-76.406;2023-02-28T04:19:38;99742.39;;;41.33;9.58
78094;BME280;67327;37.152;-76.406;2023-02-28T04:22:04;99740.57;;;41.59;9.56
78094;BME280;67327;37.152;-76.406;2023-02-28T04:24:29;99730.46;;;41.61;9.57
78094;BME280;67327;37.152;-76.406;2023-02-28T04:26:55;99726.80;;;41.61;9.54
78094;BME280;67327;37.152;-76.406;2023-02-28T04:29:21;99720.71;;;41.60;9.56
78094;BME280;67327;37.152;-76.406;2023-02-28T04:31:44;99710.21;;;41.37;9.56
78094;BME280;67327;37.152;-76.406;2023-02-28T04:34:09;99710.30;;;41.61;9.54
78094;BME280;67327;37.152;-76.406;2023-02-28T04:36:35;99709.21;;;41.60;9.53
78094;BME280;67327;37.152;-76.406;2023-02-28T04:38:59;99704.61;;;41.60;9.51
78094;BME280;67327;37.152;-76.406;2023-02-28T04:41:25;99700.55;;;41.37;9.51
78094;BME280;67327;37.152;-76.406;2023-02-28T04:43:51;99698.23;;;41.61;9.51
78094;BME280;67327;37.152;-76.406;2023-02-28T04:46:15;99687.86;;;41.58;9.51
78094;BME280;67327;37.152;-76.406;2023-02-28T04:48:40;99684.70;;;41.56;9.51
78094;BME280;67327;37.152;-76.406;2023-02-28T04:51:12;99685.99;;;41.53;9.52
78094;BME280;67327;37.152;-76.406;2023-02-28T04:53:30;99682.99;;;41.52;9.53
78094;BME280;67327;37.152;-76.406;2023-02-28T04:55:55;99680.54;;;41.50;9.52
78094;BME280;67327;37.152;-76.406;2023-02-28T04:58:20;99668.91;;;41.47;9.52
78094;BME280;67327;37.152;-76.406;2023-02-28T05:03:11;99667.94;;;41.43;9.52
78094;BME280;67327;37.152;-76.406;2023-02-28T05:05:36;99668.29;;;41.44;9.51
78094;BME280;67327;37.152;-76.406;2023-02-28T05:08:01;99662.64;;;41.44;9.51
78094;BME280;67327;37.152;-76.406;2023-02-28T05:10:26;99665.30;;;41.44;9.51
78094;BME280;67327;37.152;-76.406;2023-02-28T05:12:51;99663.22;;;41.42;9.49
78094;BME280;67327;37.152;-76.406;2023-02-28T05:15:17;99663.58;;;41.41;9.49
78094;BME280;67327;37.152;-76.406;2023-02-28T05:17:47;99656.32;;;41.41;9.48
78094;BME280;67327;37.152;-76.406;2023-02-28T05:20:08;99659.94;;;41.47;9.46
78094;BME280;67327;37.152;-76.406;2023-02-28T05:22:32;99653.51;;;41.48;9.44
78094;BME280;67327;37.152;-76.406;2023-02-28T05:24:57;99653.02;;;41.46;9.45
78094;BME280;67327;37.152;-76.406;2023-02-28T05:27:27;99652.28;;;41.45;9.45
78094;BME280;67327;37.152;-76.406;2023-02-28T05:29:47;99651.82;;;41.46;9.44
78094;BME280;67327;37.152;-76.406;2023-02-28T05:32:12;99654.31;;;41.45;9.44
78094;BME280;67327;37.152;-76.406;2023-02-28T05:34:43;99651.54;;;41.41;9.44
78094;BME280;67327;37.152;-76.406;2023-02-28T05:37:03;99653.55;;;41.40;9.44
78094;BME280;67327;37.152;-76.406;2023-02-28T05:39:27;99656.38;;;41.40;9.43
78094;BME280;67327;37.152;-76.406;2023-02-28T05:41:53;99655.30;;;41.41;9.43
78094;BME280;67327;37.152;-76.406;2023-02-28T05:44:18;99654.57;;;41.40;9.43
78094;BME280;67327;37.152;-76.406;2023-02-28T05:46:43;99655.29;;;41.37;9.42
78094;BME280;67327;37.152;-76.406;2023-02-28T05:49:08;99651.71;;;41.33;9.44
78094;BME280;67327;37.152;-76.406;2023-02-28T05:51:33;99656.31;;;41.55;9.45
78094;BME280;67327;37.152;-76.406;2023-02-28T05:54:00;99664.02;;;41.30;9.44
78094;BME280;67327;37.152;-76.406;2023-02-28T05:56:24;99667.86;;;41.29;9.45
78094;BME280;67327;37.152;-76.406;2023-02-28T05:58:49;99680.28;;;41.27;9.45
78094;BME280;67327;37.152;-76.406;2023-02-28T06:01:22;99674.32;;;41.24;9.46
78094;BME280;67327;37.152;-76.406;2023-02-28T06:03:39;99681.06;;;41.23;9.46
78094;BME280;67327;37.152;-76.406;2023-02-28T06:06:04;99687.60;;;41.21;9.46
78094;BME280;67327;37.152;-76.406;2023-02-28T06:08:29;99681.94;;;41.42;9.47
78094;BME280;67327;37.152;-76.406;2023-02-28T06:10:54;99705.37;;;41.40;9.48
78094;BME280;67327;37.152;-76.406;2023-02-28T06:13:19;99676.71;;;41.15;9.47
78094;BME280;67327;37.152;-76.406;2023-02-28T06:15:44;99712.15;;;41.13;9.47
78094;BME280;67327;37.152;-76.406;2023-02-28T06:18:10;99669.71;;;41.36;9.48
78094;BME280;67327;37.152;-76.406;2023-02-28T06:20:35;99708.85;;;41.37;9.47
78094;BME280;67327;37.152;-76.406;2023-02-28T06:23:00;99693.17;;;41.39;9.46
78094;BME280;67327;37.152;-76.406;2023-02-28T06:25:25;99682.06;;;41.15;9.45
78094;BME280;67327;37.152;-76.406;2023-02-28T06:27:50;99676.66;;;41.40;9.45
78094;BME280;67327;37.152;-76.406;2023-02-28T06:30:15;99698.70;;;41.40;9.44
78094;BME280;67327;37.152;-76.406;2023-02-28T06:32:41;99692.00;;;41.37;9.44
78094;BME280;67327;37.152;-76.406;2023-02-28T06:35:06;99707.46;;;41.12;9.44
78094;BME280;67327;37.152;-76.406;2023-02-28T06:37:31;99710.89;;;40.88;9.43
78094;BME280;67327;37.152;-76.406;2023-02-28T06:39:56;99721.17;;;41.12;9.45
78094;BME280;67327;37.152;-76.406;2023-02-28T06:42:21;99714.58;;;41.35;9.43
78094;BME280;67327;37.152;-76.406;2023-02-28T06:44:46;99709.49;;;41.35;9.44
78094;BME280;67327;37.152;-76.406;2023-02-28T06:47:11;99713.01;;;41.32;9.43
78094;BME280;67327;37.152;-76.406;2023-02-28T06:49:36;99715.25;;;41.07;9.45
78094;BME280;67327;37.152;-76.406;2023-02-28T06:52:02;99716.00;;;41.07;9.45
78094;BME280;67327;37.152;-76.406;2023-02-28T06:54:26;99713.66;;;41.06;9.43
78094;BME280;67327;37.152;-76.406;2023-02-28T06:56:52;99721.59;;;41.05;9.42
78094;BME280;67327;37.152;-76.406;2023-02-28T06:59:16;99723.80;;;41.03;9.45
78094;BME280;67327;37.152;-76.406;2023-02-28T07:01:42;99723.51;;;41.49;9.45
78094;BME280;67327;37.152;-76.406;2023-02-28T07:04:07;99726.52;;;40.99;9.43
78094;BME280;67327;37.152;-76.406;2023-02-28T07:06:38;99727.85;;;40.98;9.42
78094;BME280;67327;37.152;-76.406;2023-02-28T07:08:57;99726.61;;;41.21;9.45
78094;BME280;67327;37.152;-76.406;2023-02-28T07:11:24;99727.83;;;40.96;9.46
78094;BME280;67327;37.152;-76.406;2023-02-28T07:13:47;99729.58;;;40.97;9.45
78094;BME280;67327;37.152;-76.406;2023-02-28T07:16:12;99727.88;;;40.97;9.45
78094;BME280;67327;37.152;-76.406;2023-02-28T07:18:38;99727.16;;;41.19;9.45
78094;BME280;67327;37.152;-76.406;2023-02-28T07:21:10;99731.98;;;40.93;9.45
78094;BME280;67327;37.152;-76.406;2023-02-28T07:23:28;99728.57;;;40.93;9.46
78094;BME280;67327;37.152;-76.406;2023-02-28T07:25:53;99729.58;;;40.92;9.45
78094;BME280;67327;37.152;-76.406;2023-02-28T07:28:18;99726.14;;;40.90;9.47
78094;BME280;67327;37.152;-76.406;2023-02-28T07:30:43;99725.81;;;41.15;9.47
78094;BME280;67327;37.152;-76.406;2023-02-28T07:33:08;99721.55;;;40.91;9.47
78094;BME280;67327;37.152;-76.406;2023-02-28T07:35:33;99732.70;;;40.89;9.46
78094;BME280;67327;37.152;-76.406;2023-02-28T07:37:59;99735.74;;;40.87;9.48
78094;BME280;67327;37.152;-76.406;2023-02-28T07:40:24;99751.48;;;40.84;9.48
78094;BME280;67327;37.152;-76.406;2023-02-28T07:42:49;99757.14;;;40.82;9.48
78094;BME280;67327;37.152;-76.406;2023-02-28T07:45:14;99763.41;;;41.04;9.49
78094;BME280;67327;37.152;-76.406;2023-02-28T07:47:40;99768.59;;;40.78;9.49
78094;BME280;67327;37.152;-76.406;2023-02-28T07:50:05;99769.83;;;40.81;9.46
78094;BME280;67327;37.152;-76.406;2023-02-28T07:52:29;99767.53;;;40.79;9.49
78094;BME280;67327;37.152;-76.406;2023-02-28T07:54:54;99762.99;;;40.76;9.48
78094;BME280;67327;37.152;-76.406;2023-02-28T07:57:25;99756.48;;;40.97;9.50
78094;BME280;67327;37.152;-76.406;2023-02-28T07:59:45;99761.45;;;40.72;9.50
78094;BME280;67327;37.152;-76.406;2023-02-28T08:02:12;99774.31;;;40.95;9.51
78094;BME280;67327;37.152;-76.406;2023-02-28T08:04:35;99775.92;;;40.93;9.52
78094;BME280;67327;37.152;-76.406;2023-02-28T08:07:00;99780.37;;;40.65;9.52
78094;BME280;67327;37.152;-76.406;2023-02-28T08:09:25;99784.77;;;40.62;9.53
78094;BME280;67327;37.152;-76.406;2023-02-28T08:11:51;99766.45;;;40.58;9.53
78094;BME280;67327;37.152;-76.406;2023-02-28T08:14:15;99772.81;;;41.03;9.55
78094;BME280;67327;37.152;-76.406;2023-02-28T08:16:41;99768.63;;;41.01;9.56
78094;BME280;67327;37.152;-76.406;2023-02-28T08:19:06;99774.14;;;40.49;9.57
78094;BME280;67327;37.152;-76.406;2023-02-28T08:21:32;99768.49;;;40.92;9.58
78094;BME280;67327;37.152;-76.406;2023-02-28T08:23:56;99778.24;;;40.64;9.59
78094;BME280;67327;37.152;-76.406;2023-02-28T08:26:21;99788.72;;;40.62;9.61
78094;BME280;67327;37.152;-76.406;2023-02-28T08:28:46;99796.14;;;40.60;9.62
78094;BME280;67327;37.152;-76.406;2023-02-28T08:31:18;99816.26;;;40.81;9.64
78094;BME280;67327;37.152;-76.406;2023-02-28T08:33:37;99814.54;;;40.79;9.62
78094;BME280;67327;37.152;-76.406;2023-02-28T08:36:02;99811.15;;;40.76;9.64
78094;BME280;67327;37.152;-76.406;2023-02-28T08:38:27;99820.09;;;40.74;9.63
78094;BME280;67327;37.152;-76.406;2023-02-28T08:40:58;99826.12;;;40.72;9.65
78094;BME280;67327;37.152;-76.406;2023-02-28T08:43:17;99825.47;;;40.47;9.65
78094;BME280;67327;37.152;-76.406;2023-02-28T08:45:42;99831.88;;;40.47;9.66
78094;BME280;67327;37.152;-76.406;2023-02-28T08:48:07;99839.41;;;40.48;9.66
78094;BME280;67327;37.152;-76.406;2023-02-28T08:50:32;99840.81;;;40.48;9.65
78094;BME280;67327;37.152;-76.406;2023-02-28T08:52:57;99839.41;;;40.72;9.64
78094;BME280;67327;37.152;-76.406;2023-02-28T08:55:28;99848.70;;;40.71;9.64
78094;BME280;67327;37.152;-76.406;2023-02-28T08:57:48;99859.90;;;40.70;9.65
78094;BME280;67327;37.152;-76.406;2023-02-28T09:00:13;99863.68;;;40.46;9.65
78094;BME280;67327;37.152;-76.406;2023-02-28T09:02:39;99882.21;;;40.69;9.65
78094;BME280;67327;37.152;-76.406;2023-02-28T09:05:03;99884.58;;;40.44;9.65
78094;BME280;67327;37.152;-76.406;2023-02-28T09:07:28;99897.68;;;40.65;9.66
78094;BME280;67327;37.152;-76.406;2023-02-28T09:09:53;99908.36;;;40.64;9.67
78094;BME280;67327;37.152;-76.406;2023-02-28T09:12:18;99919.70;;;40.64;9.68
78094;BME280;67327;37.152;-76.406;2023-02-28T09:14:43;99926.60;;;40.65;9.67
78094;BME280;67327;37.152;-76.406;2023-02-28T09:17:09;99926.29;;;40.40;9.67
78094;BME280;67327;37.152;-76.406;2023-02-28T09:19:34;99923.48;;;40.38;9.71
78094;BME280;67327;37.152;-76.406;2023-02-28T09:21:59;99927.75;;;40.61;9.71
78094;BME280;67327;37.152;-76.406;2023-02-28T09:24:25;99920.50;;;40.35;9.72
78094;BME280;67327;37.152;-76.406;2023-02-28T09:26:49;99924.32;;;40.57;9.69
78094;BME280;67327;37.152;-76.406;2023-02-28T09:29:14;99930.77;;;40.55;9.71
78094;BME280;67327;37.152;-76.406;2023-02-28T09:31:39;99933.76;;;40.53;9.71
78094;BME280;67327;37.152;-76.406;2023-02-28T09:34:05;99932.25;;;40.50;9.71
78094;BME280;67327;37.152;-76.406;2023-02-28T09:36:35;99923.93;;;40.49;9.71
78094;BME280;67327;37.152;-76.406;2023-02-28T09:38:55;99920.52;;;40.25;9.72
78094;BME280;67327;37.152;-76.406;2023-02-28T09:41:23;99914.37;;;40.24;9.71
78094;BME280;67327;37.152;-76.406;2023-02-28T09:43:47;99920.64;;;40.47;9.72
78094;BME280;67327;37.152;-76.406;2023-02-28T09:46:20;99917.12;;;40.48;9.71
78094;BME280;67327;37.152;-76.406;2023-02-28T09:48:38;99933.45;;;40.72;9.71
78094;BME280;67327;37.152;-76.406;2023-02-28T09:51:04;99940.54;;;40.45;9.72
78094;BME280;67327;37.152;-76.406;2023-02-28T09:53:27;99939.70;;;40.40;9.73
78094;BME280;67327;37.152;-76.406;2023-02-28T09:55:53;99953.61;;;40.37;9.74
78094;BME280;67327;37.152;-76.406;2023-02-28T09:58:20;99965.34;;;40.33;9.74
78094;BME280;67327;37.152;-76.406;2023-02-28T10:00:46;99972.88;;;40.32;9.74
78094;BME280;67327;37.152;-76.406;2023-02-28T10:05:35;99969.39;;;40.06;9.76
78094;BME280;67327;37.152;-76.406;2023-02-28T10:08:02;99983.40;;;40.32;9.74
78094;BME280;67327;37.152;-76.406;2023-02-28T10:10:24;99976.88;;;40.31;9.74
78094;BME280;67327;37.152;-76.406;2023-02-28T10:12:47;99974.25;;;40.29;9.75
78094;BME280;67327;37.152;-76.406;2023-02-28T10:15:14;99990.43;;;40.02;9.76
78094;BME280;67327;37.152;-76.406;2023-02-28T10:17:39;99999.93;;;40.22;9.77
78094;BME280;67327;37.152;-76.406;2023-02-28T10:20:04;100004.70;;;40.23;9.75
78094;BME280;67327;37.152;-76.406;2023-02-28T10:22:32;100019.40;;;40.26;9.76
78094;BME280;67327;37.152;-76.406;2023-02-28T10:24:55;100023.66;;;40.52;9.74
78094;BME280;67327;37.152;-76.406;2023-02-28T10:27:19;100032.66;;;40.27;9.76
78094;BME280;67327;37.152;-76.406;2023-02-28T10:29:44;100044.24;;;40.25;9.75
78094;BME280;67327;37.152;-76.406;2023-02-28T10:32:08;100053.28;;;40.23;9.77
78094;BME280;67327;37.152;-76.406;2023-02-28T10:34:32;100062.56;;;40.21;9.77
78094;BME280;67327;37.152;-76.406;2023-02-28T10:36:59;100063.07;;;40.19;9.79
78094;BME280;67327;37.152;-76.406;2023-02-28T10:39:34;100074.41;;;40.17;9.79
78094;BME280;67327;37.152;-76.406;2023-02-28T10:41:48;100088.33;;;40.40;9.78
78094;BME280;67327;37.152;-76.406;2023-02-28T10:44:18;100088.19;;;40.13;9.79
78094;BME280;67327;37.152;-76.406;2023-02-28T10:46:40;100090.84;;;40.11;9.80
78094;BME280;67327;37.152;-76.406;2023-02-28T10:49:06;100093.89;;;40.09;9.81
78094;BME280;67327;37.152;-76.406;2023-02-28T10:51:35;100084.78;;;40.10;9.80
78094;BME280;67327;37.152;-76.406;2023-02-28T10:53:54;100091.62;;;40.35;9.78
78094;BME280;67327;37.152;-76.406;2023-02-28T10:56:20;100094.89;;;40.09;9.80
78094;BME280;67327;37.152;-76.406;2023-02-28T10:58:52;100092.65;;;39.84;9.80
78094;BME280;67327;37.152;-76.406;2023-02-28T11:01:13;100095.71;;;40.32;9.79
78094;BME280;67327;37.152;-76.406;2023-02-28T11:03:35;100106.55;;;40.05;9.81
78094;BME280;67327;37.152;-76.406;2023-02-28T11:06:05;100110.57;;;40.02;9.83
78094;BME280;67327;37.152;-76.406;2023-02-28T11:08:25;100114.24;;;40.00;9.85
78094;BME280;67327;37.152;-76.406;2023-02-28T11:10:55;100118.38;;;40.01;9.85
78094;BME280;67327;37.152;-76.406;2023-02-28T11:13:26;100120.58;;;40.02;9.84
78094;BME280;67327;37.152;-76.406;2023-02-28T11:15:40;100123.08;;;40.28;9.86
78094;BME280;67327;37.152;-76.406;2023-02-28T11:18:18;100129.39;;;40.27;9.88
78094;BME280;67327;37.152;-76.406;2023-02-28T11:20:32;100140.87;;;40.25;9.89
78094;BME280;67327;37.152;-76.406;2023-02-28T11:22:57;100139.00;;;40.00;9.91
78094;BME280;67327;37.152;-76.406;2023-02-28T11:25:24;100152.01;;;39.98;9.90
78094;BME280;67327;37.152;-76.406;2023-02-28T11:27:48;100150.89;;;39.97;9.92
78094;BME280;67327;37.152;-76.406;2023-02-28T11:30:25;100162.60;;;39.72;9.94
78094;BME280;67327;37.152;-76.406;2023-02-28T11:32:35;100172.35;;;40.22;9.93
78094;BME280;67327;37.152;-76.406;2023-02-28T11:35:03;100169.23;;;40.23;9.94
78094;BME280;67327;37.152;-76.406;2023-02-28T11:37:29;100181.18;;;39.99;9.94
78094;BME280;67327;37.152;-76.406;2023-02-28T11:39:51;100175.81;;;40.00;9.94
78094;BME280;67327;37.152;-76.406;2023-02-28T11:42:29;100182.84;;;39.98;9.96
78094;BME280;67327;37.152;-76.406;2023-02-28T11:44:53;100181.30;;;40.22;9.97
78094;BME280;67327;37.152;-76.406;2023-02-28T11:47:12;100197.78;;;39.99;9.97
78094;BME280;67327;37.152;-76.406;2023-02-28T11:49:37;100199.97;;;40.22;9.99
78094;BME280;67327;37.152;-76.406;2023-02-28T11:52:01;100203.28;;;40.17;10.00
78094;BME280;67327;37.152;-76.406;2023-02-28T11:54:34;100203.19;;;39.88;10.04
78094;BME280;67327;37.152;-76.406;2023-02-28T11:56:54;100206.50;;;39.86;10.06
78094;BME280;67327;37.152;-76.406;2023-02-28T11:59:31;100204.80;;;40.31;10.07
78094;BME280;67327;37.152;-76.406;2023-02-28T12:01:46;100205.74;;;40.06;10.08
78094;BME280;67327;37.152;-76.406;2023-02-28T12:04:22;100205.48;;;39.83;10.08
78094;BME280;67327;37.152;-76.406;2023-02-28T12:06:32;100211.18;;;39.86;10.08
78094;BME280;67327;37.152;-76.406;2023-02-28T12:09:02;100212.53;;;40.08;10.10
78094;BME280;67327;37.152;-76.406;2023-02-28T12:11:29;100224.69;;;40.04;10.12
78094;BME280;67327;37.152;-76.406;2023-02-28T12:13:49;100234.64;;;39.78;10.13
78094;BME280;67327;37.152;-76.406;2023-02-28T12:16:26;100250.01;;;40.00;10.13
78094;BME280;67327;37.152;-76.406;2023-02-28T12:18:50;100261.60;;;40.01;10.14
78094;BME280;67327;37.152;-76.406;2023-02-28T12:21:04;100273.62;;;40.25;10.12
78094;BME280;67327;37.152;-76.406;2023-02-28T12:25:56;100279.28;;;39.73;10.14
78094;BME280;67327;37.152;-76.406;2023-02-28T12:28:16;100280.08;;;40.19;10.15
78094;BME280;67327;37.152;-76.406;2023-02-28T12:30:43;100275.86;;;40.18;10.16
78094;BME280;67327;37.152;-76.406;2023-02-28T12:33:06;100281.08;;;40.16;10.18
78094;BME280;67327;37.152;-76.406;2023-02-28T12:35:34;100277.71;;;39.88;10.19
78094;BME280;67327;37.152;-76.406;2023-02-28T12:37:57;100279.20;;;39.87;10.18
78094;BME280;67327;37.152;-76.406;2023-02-28T12:40:21;100281.80;;;39.88;10.21
78094;BME280;67327;37.152;-76.406;2023-02-28T12:42:47;100281.77;;;39.66;10.20
78094;BME280;67327;37.152;-76.406;2023-02-28T12:45:13;100284.81;;;39.90;10.21